aviador You're here:

LKKV Decoded Metar

KARLOVY VARY in CZECH REPUBLIC
Report Time2017-10-22 17:00:00
UTC Time2017-10-22 17:14:09
Flight Rules vfr VFR
Wind230° at 05 kt
W.Decomp.*RWY 29: 2.3 kt HW 4.5 kt LCW
W.Rank230° ranks 10
Current wind is below 230° avg. (5.6)
Visibility9999 m
Phenomena:N/A
Clouds:Broken 043 Hf
Expected CloudBase > 1,200 ft AGL from Temp-Dew spread
Ceiling4,300 ft
Temp07°C (ISA -4)
Dew Point04°C (81% RH)
AAT3.9°C
QNH1014 hPa
Density Alt1,578 ft
Elevation1,982 ft
Report Wrong Elevation
Raw Report
LKKV 221700Z 23005KT 190V260 9999 BKN043 07/04 Q1014=

Extra information for LKKV:More info

Metar Taf Metar & Taf Last 4 Metars F.Rules Stats Wind Profile Meteogram Temp Stats Airport Information Weather charts Add Link Nearby VenuesMetar ALERT Operation Metar Decoded Social comments